Time;durP1;ratioP1;P1;durP2;ratioP2;P2;SDS_P1;SDS_P2;PMS_P1;PMS_P2;Temp;Humidity;BMP_temperature;BMP_pressure;BME280_temperature;BME280_humidity;BME280_pressure;Samples;Min_cycle;Max_cycle;Signal;HPM_P1;HPM_P2
2024/04/21 00:02:01;;;;;;;3.53;2.60;;;4.80;99.90;;;;;;5480963;26;20239;-54
2024/04/21 00:04:29;;;;;;;2.53;2.33;;;4.70;99.90;;;;;;5468337;26;20293;-52
2024/04/21 00:06:55;;;;;;;2.30;2.20;;;4.70;99.90;;;;;;5478767;26;20257;-54
2024/04/21 00:09:26;;;;;;;3.63;2.13;;;4.80;99.90;;;;;;5470160;26;20229;-53
2024/04/21 00:11:52;;;;;;;2.30;2.10;;;4.80;99.90;;;;;;5482189;26;20350;-54
2024/04/21 00:14:20;;;;;;;2.53;2.33;;;4.80;99.90;;;;;;5444716;26;21117;-53
2024/04/21 00:16:46;;;;;;;4.77;2.27;;;4.70;99.90;;;;;;5486086;26;20229;-55
2024/04/21 00:19:15;;;;;;;2.50;2.00;;;4.80;99.90;;;;;;5480377;26;20260;-55
2024/04/21 00:21:41;;;;;;;2.83;2.20;;;4.80;99.90;;;;;;5463126;26;20295;-55
2024/04/21 00:24:09;;;;;;;2.67;2.47;;;4.70;99.90;;;;;;5475151;26;20229;-55
2024/04/21 00:26:37;;;;;;;3.07;2.30;;;4.70;99.90;;;;;;5487673;26;20356;-54
2024/04/21 00:29:07;;;;;;;2.10;1.90;;;4.70;99.90;;;;;;5436352;26;20636;-53
2024/04/21 00:31:33;;;;;;;2.47;2.23;;;4.70;99.90;;;;;;5491416;26;20232;-54
2024/04/21 00:34:02;;;;;;;2.23;2.03;;;4.70;99.90;;;;;;5480851;26;20938;-54
2024/04/21 00:36:28;;;;;;;2.77;2.10;;;4.70;99.90;;;;;;5466869;26;20226;-53
2024/04/21 00:38:56;;;;;;;2.97;2.13;;;4.60;99.90;;;;;;5478762;26;20767;-54
2024/04/21 00:41:23;;;;;;;2.30;2.10;;;4.60;99.90;;;;;;5485985;26;20227;-54
2024/04/21 00:43:54;;;;;;;1.80;1.70;;;4.50;99.90;;;;;;5444507;26;20235;-53
2024/04/21 00:46:20;;;;;;;2.13;1.93;;;4.50;99.90;;;;;;5489947;25;20235;-54
2024/04/21 00:48:49;;;;;;;2.33;1.60;;;4.50;99.90;;;;;;5484712;26;20280;-54
2024/04/21 00:51:19;;;;;;;2.07;1.97;;;4.50;99.90;;;;;;5448794;26;20238;-55
2024/04/21 00:53:48;;;;;;;2.00;1.80;;;4.40;99.90;;;;;;5492304;26;20720;-49
2024/04/21 00:56:15;;;;;;;2.80;2.03;;;4.30;99.90;;;;;;5485267;26;20229;-53
2024/04/21 00:58:46;;;;;;;2.97;1.70;;;4.30;99.90;;;;;;5446142;25;20281;-51
2024/04/21 01:01:14;;;;;;;1.97;1.87;;;4.30;99.90;;;;;;5482313;26;20277;-53
2024/04/21 01:03:43;;;;;;;2.23;2.03;;;4.30;99.90;;;;;;5474282;26;20234;-52
2024/04/21 01:06:09;;;;;;;2.07;1.50;;;4.30;99.90;;;;;;5463593;26;20223;-55
2024/04/21 01:08:38;;;;;;;1.80;1.63;;;4.20;99.90;;;;;;5491311;26;20350;-51
2024/04/21 01:11:04;;;;;;;2.03;1.80;;;4.30;99.90;;;;;;5477735;26;20239;-54
2024/04/21 01:13:32;;;;;;;1.40;1.30;;;4.20;99.90;;;;;;5487293;26;20279;-53
2024/04/21 01:15:58;;;;;;;1.70;1.60;;;4.20;99.90;;;;;;5447766;26;20292;-55
2024/04/21 01:18:29;;;;;;;1.73;1.63;;;4.10;99.90;;;;;;5471179;26;21002;-54
2024/04/21 01:20:55;;;;;;;1.93;1.60;;;4.00;99.90;;;;;;5485269;25;20311;-53
2024/04/21 01:23:26;;;;;;;1.57;1.47;;;4.00;99.90;;;;;;5463024;26;20239;-55
2024/04/21 01:25:52;;;;;;;2.20;1.73;;;4.00;99.90;;;;;;5487934;26;20260;-55
2024/04/21 01:28:20;;;;;;;3.37;1.67;;;4.00;99.90;;;;;;5484501;26;20225;-55
2024/04/21 01:30:46;;;;;;;1.90;1.80;;;3.90;99.90;;;;;;5444780;26;20865;-53
2024/04/21 01:33:15;;;;;;;1.60;1.50;;;3.90;99.90;;;;;;5462683;26;20425;-56
2024/04/21 01:35:42;;;;;;;1.70;1.60;;;3.90;99.90;;;;;;5485929;26;20238;-51
2024/04/21 01:38:10;;;;;;;1.90;1.80;;;3.90;99.90;;;;;;5469304;26;20284;-53
2024/04/21 01:40:39;;;;;;;1.77;1.67;;;3.90;99.90;;;;;;5487389;25;20272;-54
2024/04/21 01:43:07;;;;;;;1.87;1.77;;;4.00;99.90;;;;;;5481054;26;20239;-55
2024/04/21 01:45:33;;;;;;;1.80;1.70;;;3.90;99.90;;;;;;5437757;26;20279;-55
2024/04/21 01:48:02;;;;;;;1.93;1.80;;;3.80;99.90;;;;;;5478330;26;20720;-55
2024/04/21 01:50:28;;;;;;;1.60;1.50;;;3.90;99.90;;;;;;5465615;26;20253;-55
2024/04/21 01:52:56;;;;;;;2.03;1.60;;;3.80;99.90;;;;;;5464584;26;20592;-54
2024/04/21 01:55:22;;;;;;;1.97;1.87;;;3.80;99.90;;;;;;5465742;26;20238;-53
2024/04/21 01:57:54;;;;;;;1.93;1.70;;;3.70;99.90;;;;;;5471550;26;20254;-52
2024/04/21 02:00:20;;;;;;;3.17;2.00;;;3.70;99.90;;;;;;5424790;26;20296;-54
2024/04/21 02:02:48;;;;;;;3.07;1.87;;;3.60;99.90;;;;;;5488991;26;20235;-55
2024/04/21 02:05:14;;;;;;;1.77;1.67;;;3.50;99.90;;;;;;5481380;26;20281;-55
2024/04/21 02:07:43;;;;;;;1.93;1.83;;;3.50;99.90;;;;;;5470445;26;20745;-51
2024/04/21 02:10:08;;;;;;;1.97;1.83;;;3.50;99.90;;;;;;5487180;26;20235;-56
2024/04/21 02:12:37;;;;;;;1.67;1.57;;;3.40;99.90;;;;;;5486860;26;20234;-55
2024/04/21 02:15:06;;;;;;;2.40;1.73;;;3.40;99.90;;;;;;5478713;26;20234;-55
2024/04/21 02:17:34;;;;;;;2.40;2.20;;;3.40;99.90;;;;;;5440080;25;20284;-56
2024/04/21 02:20:00;;;;;;;2.73;2.50;;;3.30;99.90;;;;;;5486339;26;20269;-56
2024/04/21 02:22:29;;;;;;;2.30;2.10;;;3.30;99.90;;;;;;5494312;26;20230;-52
2024/04/21 02:24:54;;;;;;;2.13;1.97;;;3.30;99.90;;;;;;5471014;26;20654;-56
2024/04/21 02:27:23;;;;;;;2.30;2.10;;;3.30;99.90;;;;;;5471805;26;20277;-54
2024/04/21 02:29:49;;;;;;;2.50;2.30;;;3.30;99.90;;;;;;5478453;26;20268;-52
2024/04/21 02:32:20;;;;;;;2.60;2.40;;;3.20;99.90;;;;;;5440562;26;20250;-55
2024/04/21 02:34:46;;;;;;;2.93;2.57;;;3.20;99.90;;;;;;5488603;26;20234;-54
2024/04/21 02:37:15;;;;;;;2.93;2.50;;;3.20;99.90;;;;;;5483089;26;20342;-55
2024/04/21 02:39:41;;;;;;;3.77;2.87;;;3.20;99.90;;;;;;5468700;26;20241;-56
2024/04/21 02:42:09;;;;;;;2.73;2.43;;;3.20;99.90;;;;;;5475190;26;20265;-56
2024/04/21 02:44:35;;;;;;;2.97;2.77;;;3.10;99.90;;;;;;5486103;26;20237;-54
2024/04/21 02:47:03;;;;;;;4.77;2.83;;;3.10;99.90;;;;;;5465742;26;20284;-58
2024/04/21 02:49:32;;;;;;;3.77;3.17;;;3.10;99.90;;;;;;5469675;26;20508;-55
2024/04/21 02:52:00;;;;;;;3.03;2.73;;;3.10;99.90;;;;;;5486342;26;20282;-56
2024/04/21 02:54:26;;;;;;;3.43;2.90;;;3.00;99.90;;;;;;5464894;26;20361;-55
2024/04/21 02:56:55;;;;;;;3.37;2.90;;;3.00;99.90;;;;;;5480195;26;20265;-55
2024/04/21 02:59:21;;;;;;;3.60;3.30;;;3.00;99.90;;;;;;5481573;26;20263;-55
2024/04/21 03:01:50;;;;;;;3.90;3.27;;;3.00;99.90;;;;;;5492750;26;20238;-56
2024/04/21 03:04:16;;;;;;;3.57;3.20;;;3.00;99.90;;;;;;5437015;26;20284;-51
2024/04/21 03:06:50;;;;;;;3.20;2.90;;;3.00;99.90;;;;;;5490017;26;20614;-55
2024/04/21 03:09:16;;;;;;;3.27;2.97;;;3.00;99.90;;;;;;5453702;26;20229;-56
2024/04/21 03:11:45;;;;;;;3.37;3.07;;;3.00;99.90;;;;;;5482745;26;20288;-56
2024/04/21 03:14:10;;;;;;;3.40;3.10;;;3.00;99.90;;;;;;5488366;26;20242;-55
2024/04/21 03:16:39;;;;;;;3.20;2.73;;;3.00;99.90;;;;;;5482541;26;20267;-54
2024/04/21 03:19:05;;;;;;;3.57;3.23;;;3.10;99.90;;;;;;5458401;26;20230;-54
2024/04/21 03:21:33;;;;;;;4.37;3.13;;;3.00;99.90;;;;;;5456921;26;20590;-55
2024/04/21 03:24:03;;;;;;;3.13;2.83;;;2.90;99.90;;;;;;5465643;26;20342;-56
2024/04/21 03:26:31;;;;;;;3.53;3.20;;;2.90;99.90;;;;;;5485664;26;20329;-54
2024/04/21 03:28:57;;;;;;;2.73;2.50;;;2.90;99.90;;;;;;5486019;26;20229;-56
2024/04/21 03:31:25;;;;;;;2.90;2.70;;;2.90;99.90;;;;;;5483650;26;20264;-55
2024/04/21 03:33:51;;;;;;;3.43;3.00;;;2.90;99.90;;;;;;5486456;26;20612;-54
2024/04/21 03:36:20;;;;;;;6.03;3.47;;;2.90;99.90;;;;;;5430009;26;20357;-56
2024/04/21 03:38:49;;;;;;;3.60;3.27;;;3.00;99.90;;;;;;5476475;26;20225;-52
2024/04/21 03:41:20;;;;;;;3.77;3.40;;;3.00;99.90;;;;;;5468942;26;20272;-53
2024/04/21 03:43:50;;;;;;;5.13;4.00;;;3.00;99.90;;;;;;5485111;26;20229;-54
2024/04/21 03:46:16;;;;;;;4.23;3.40;;;3.00;99.90;;;;;;5479991;26;20360;-56
2024/04/21 03:48:45;;;;;;;3.80;3.43;;;3.00;99.90;;;;;;5483705;26;20242;-54
2024/04/21 03:51:11;;;;;;;4.83;3.87;;;3.10;99.90;;;;;;5425845;26;20327;-56
2024/04/21 03:53:39;;;;;;;3.87;3.40;;;3.10;99.90;;;;;;5485813;26;20666;-54
2024/04/21 03:56:06;;;;;;;4.40;4.00;;;3.10;99.90;;;;;;5471427;26;20237;-56
2024/04/21 03:58:37;;;;;;;4.57;3.43;;;3.10;99.90;;;;;;5480978;26;20303;-56
2024/04/21 04:01:03;;;;;;;3.50;3.20;;;3.10;99.90;;;;;;5495034;26;20258;-55
2024/04/21 04:03:32;;;;;;;4.70;3.43;;;3.10;99.90;;;;;;5469468;26;20454;-56
2024/04/21 04:05:57;;;;;;;4.57;4.10;;;3.10;99.90;;;;;;5443583;26;20246;-55
2024/04/21 04:08:26;;;;;;;5.47;2.83;;;3.10;99.90;;;;;;5466354;26;20289;-52
2024/04/21 04:10:52;;;;;;;3.77;3.47;;;3.10;99.90;;;;;;5481918;26;20225;-53
2024/04/21 04:13:21;;;;;;;5.83;3.73;;;3.10;99.90;;;;;;5489125;26;20335;-55
2024/04/21 04:15:50;;;;;;;4.27;3.40;;;3.10;99.90;;;;;;5480070;26;20281;-51
2024/04/21 04:18:18;;;;;;;4.30;3.90;;;3.10;99.90;;;;;;5474073;26;20288;-55
2024/04/21 04:20:45;;;;;;;4.07;3.60;;;3.10;99.90;;;;;;5479184;26;20272;-52
2024/04/21 04:23:14;;;;;;;4.23;3.03;;;3.10;99.90;;;;;;5446882;26;20269;-55
2024/04/21 04:25:40;;;;;;;4.23;3.43;;;3.10;99.90;;;;;;5487389;26;20276;-51
2024/04/21 04:28:08;;;;;;;4.43;3.67;;;3.10;99.90;;;;;;5471272;26;20230;-52
2024/04/21 04:30:34;;;;;;;3.57;3.27;;;3.10;99.90;;;;;;5469323;26;20747;-55
2024/04/21 04:33:06;;;;;;;4.60;3.50;;;3.10;99.90;;;;;;5474753;25;20276;-56
2024/04/21 04:35:32;;;;;;;4.87;3.57;;;3.10;99.90;;;;;;5482920;25;20230;-54
2024/04/21 04:38:01;;;;;;;4.40;3.30;;;3.20;99.90;;;;;;5458214;26;20276;-56
2024/04/21 04:40:27;;;;;;;5.30;3.13;;;3.20;99.90;;;;;;5482693;26;20277;-55
2024/04/21 04:42:56;;;;;;;5.93;3.80;;;3.20;99.90;;;;;;5466845;26;20246;-56
2024/04/21 04:45:22;;;;;;;3.60;3.30;;;3.20;99.90;;;;;;5465604;26;20245;-54
2024/04/21 04:47:51;;;;;;;4.70;3.93;;;3.20;99.90;;;;;;5474240;26;20363;-56
2024/04/21 04:50:20;;;;;;;3.50;2.90;;;3.30;99.90;;;;;;5474940;26;20234;-52
2024/04/21 04:52:55;;;;;;;5.00;3.80;;;3.30;99.90;;;;;;5483624;26;20783;-55
2024/04/21 04:55:21;;;;;;;4.23;3.83;;;3.20;99.90;;;;;;5436251;26;20261;-56
2024/04/21 04:57:49;;;;;;;4.33;3.27;;;3.30;99.90;;;;;;5485331;26;20234;-56
2024/04/21 05:00:15;;;;;;;3.63;3.30;;;3.30;99.90;;;;;;5441427;26;20292;-56
2024/04/21 05:02:44;;;;;;;3.67;3.37;;;3.30;99.90;;;;;;5465685;26;20597;-55
2024/04/21 05:05:10;;;;;;;4.07;2.77;;;3.30;99.90;;;;;;5477050;26;21043;-50
2024/04/21 05:07:41;;;;;;;3.77;3.23;;;3.30;99.90;;;;;;5473123;26;20289;-56
2024/04/21 05:10:07;;;;;;;3.67;3.17;;;3.30;99.90;;;;;;5452866;26;20246;-55
2024/04/21 05:12:36;;;;;;;3.27;2.97;;;3.30;99.90;;;;;;5472679;26;20238;-56
2024/04/21 05:15:02;;;;;;;3.63;3.20;;;3.40;99.90;;;;;;5460316;26;20229;-55
2024/04/21 05:17:30;;;;;;;3.37;3.07;;;3.40;99.90;;;;;;5468729;26;20234;-55
2024/04/21 05:19:57;;;;;;;3.17;2.87;;;3.40;99.90;;;;;;5484821;25;20247;-56
2024/04/21 05:22:25;;;;;;;3.20;3.00;;;3.50;99.90;;;;;;5480362;26;20681;-55
2024/04/21 05:24:53;;;;;;;2.77;2.57;;;3.50;99.90;;;;;;5434252;26;20250;-55
2024/04/21 05:27:22;;;;;;;4.87;3.87;;;3.60;99.90;;;;;;5485357;26;20234;-56
2024/04/21 05:29:50;;;;;;;4.77;3.33;;;3.60;99.90;;;;;;5441941;26;20234;-56
2024/04/21 05:32:19;;;;;;;3.53;3.10;;;3.60;99.90;;;;;;5466989;26;20249;-56
2024/04/21 05:34:44;;;;;;;7.70;3.77;;;3.60;99.90;;;;;;5479329;26;20675;-55
2024/04/21 05:37:13;;;;;;;3.80;3.13;;;3.70;99.90;;;;;;5483501;26;20272;-52
2024/04/21 05:39:39;;;;;;;3.07;2.77;;;3.70;99.90;;;;;;5467678;26;20295;-55
2024/04/21 05:42:10;;;;;;;4.10;3.00;;;3.70;99.90;;;;;;5443790;26;20239;-54
2024/04/21 05:44:36;;;;;;;3.43;3.13;;;3.80;99.90;;;;;;5462618;26;20281;-55
2024/04/21 05:47:04;;;;;;;2.80;2.60;;;3.80;99.90;;;;;;5462833;26;20243;-54
2024/04/21 05:49:30;;;;;;;4.53;3.00;;;3.80;99.90;;;;;;5479447;26;20281;-56
2024/04/21 05:51:59;;;;;;;4.37;3.47;;;3.90;99.90;;;;;;5479848;26;20237;-51
2024/04/21 05:54:24;;;;;;;3.43;3.13;;;3.90;99.90;;;;;;5479560;26;20272;-56
2024/04/21 05:56:53;;;;;;;3.63;2.57;;;4.00;99.90;;;;;;5421032;26;21147;-56
2024/04/21 05:59:23;;;;;;;4.27;3.27;;;4.00;99.90;;;;;;5455955;26;20243;-54
2024/04/21 06:01:52;;;;;;;4.43;2.87;;;4.00;99.90;;;;;;5460432;26;20276;-56
2024/04/21 06:04:17;;;;;;;4.77;2.50;;;4.10;99.90;;;;;;5497670;26;20264;-52
2024/04/21 06:06:47;;;;;;;3.90;3.20;;;4.10;99.90;;;;;;5487626;26;20233;-55
2024/04/21 06:09:13;;;;;;;3.60;3.30;;;4.20;99.90;;;;;;5480657;26;20292;-55
2024/04/21 06:11:41;;;;;;;4.33;3.40;;;4.20;99.90;;;;;;5419656;26;20291;-55
2024/04/21 06:14:08;;;;;;;3.30;2.73;;;4.30;99.90;;;;;;5463798;26;20246;-56
2024/04/21 06:16:40;;;;;;;4.40;3.00;;;4.40;99.90;;;;;;5461048;26;20295;-55
2024/04/21 06:19:06;;;;;;;3.20;2.90;;;4.40;99.90;;;;;;5459972;26;20238;-56
2024/04/21 06:21:34;;;;;;;4.30;2.80;;;4.50;99.90;;;;;;5481373;26;20273;-54
2024/04/21 06:24:01;;;;;;;3.43;3.03;;;4.50;99.90;;;;;;5478504;26;20322;-57
2024/04/21 06:26:30;;;;;;;2.80;2.00;;;4.60;99.90;;;;;;5429832;26;20250;-53
2024/04/21 06:28:56;;;;;;;2.97;2.77;;;4.70;99.90;;;;;;5471577;26;20251;-54
2024/04/21 06:31:24;;;;;;;4.37;2.43;;;4.70;99.90;;;;;;5478140;26;21065;-53
2024/04/21 06:33:53;;;;;;;2.50;2.30;;;4.80;99.90;;;;;;5466404;26;20273;-54
2024/04/21 06:36:21;;;;;;;2.40;2.20;;;4.90;99.90;;;;;;5472046;26;21231;-53
2024/04/21 06:38:47;;;;;;;4.43;2.30;;;5.00;99.90;;;;;;5489165;25;20280;-55
2024/04/21 06:41:16;;;;;;;4.53;2.20;;;5.00;99.90;;;;;;5444950;26;20721;-57
2024/04/21 06:43:42;;;;;;;2.17;1.97;;;5.10;99.90;;;;;;5488326;26;20274;-55
2024/04/21 06:46:10;;;;;;;5.10;2.33;;;5.20;99.90;;;;;;5457170;26;20780;-56
2024/04/21 06:48:36;;;;;;;4.03;2.27;;;5.30;99.90;;;;;;5461010;26;20247;-55
2024/04/21 06:51:07;;;;;;;6.50;2.53;;;5.30;99.90;;;;;;5468480;26;20325;-56
2024/04/21 06:53:33;;;;;;;2.47;2.10;;;5.30;99.90;;;;;;5479276;26;20920;-52
2024/04/21 06:56:02;;;;;;;3.53;2.13;;;5.50;99.90;;;;;;5470508;26;20721;-57
2024/04/21 06:58:28;;;;;;;2.70;2.50;;;5.60;99.90;;;;;;5438743;26;20609;-55
2024/04/21 07:00:56;;;;;;;2.13;1.87;;;5.60;99.90;;;;;;5467632;26;20238;-51
2024/04/21 07:03:22;;;;;;;2.17;2.00;;;5.60;99.90;;;;;;5465303;26;20251;-55
2024/04/21 07:05:51;;;;;;;2.27;2.07;;;5.60;99.90;;;;;;5463509;26;20235;-55
2024/04/21 07:08:20;;;;;;;2.70;1.90;;;5.70;99.90;;;;;;5483424;26;20269;-57
2024/04/21 07:10:49;;;;;;;2.63;2.43;;;5.80;99.90;;;;;;5476228;26;20294;-54
2024/04/21 07:13:14;;;;;;;2.17;1.97;;;5.90;99.90;;;;;;5451797;26;20320;-55
2024/04/21 07:15:43;;;;;;;3.83;2.00;;;6.00;99.90;;;;;;5457015;26;20290;-56
2024/04/21 07:18:09;;;;;;;2.07;1.87;;;6.00;99.90;;;;;;5458328;26;20269;-57
2024/04/21 07:20:37;;;;;;;2.20;2.00;;;6.10;99.90;;;;;;5458407;26;21228;-55
2024/04/21 07:23:03;;;;;;;1.73;1.63;;;6.10;99.90;;;;;;5471765;26;20725;-57
2024/04/21 07:25:34;;;;;;;4.10;2.23;;;6.10;99.90;;;;;;5480470;26;20274;-54
2024/04/21 07:28:01;;;;;;;3.00;2.03;;;6.20;99.90;;;;;;5467251;26;20225;-56
2024/04/21 07:30:30;;;;;;;2.27;2.07;;;6.30;99.90;;;;;;5454224;26;20343;-57
2024/04/21 07:32:55;;;;;;;2.73;1.83;;;6.40;99.90;;;;;;5448343;26;20284;-56
2024/04/21 07:35:24;;;;;;;1.93;1.77;;;6.40;99.90;;;;;;5480272;26;20358;-56
2024/04/21 07:37:50;;;;;;;2.80;1.73;;;6.60;99.90;;;;;;5458968;26;20291;-56
2024/04/21 07:40:18;;;;;;;1.77;1.67;;;6.60;99.90;;;;;;5488719;26;21228;-56
2024/04/21 07:42:47;;;;;;;2.50;1.80;;;6.70;99.90;;;;;;5475220;26;20356;-54
2024/04/21 07:45:16;;;;;;;1.70;1.60;;;6.80;99.90;;;;;;5443217;26;20246;-55
2024/04/21 07:47:41;;;;;;;2.10;1.93;;;6.80;99.90;;;;;;5459168;26;20767;-55
2024/04/21 07:50:10;;;;;;;2.40;1.90;;;6.90;99.90;;;;;;5454444;26;20242;-51
2024/04/21 07:52:36;;;;;;;1.97;1.87;;;6.90;99.90;;;;;;5484026;26;20286;-55
2024/04/21 07:55:04;;;;;;;1.67;1.57;;;6.90;99.90;;;;;;5485144;26;20246;-56
2024/04/21 07:57:32;;;;;;;2.43;1.40;;;6.90;99.90;;;;;;5485533;26;20265;-56
2024/04/21 08:00:03;;;;;;;1.80;1.70;;;7.00;99.90;;;;;;5417233;26;20293;-56
2024/04/21 08:02:37;;;;;;;1.57;1.47;;;6.90;99.90;;;;;;5455688;26;20609;-55
2024/04/21 08:05:06;;;;;;;1.80;1.43;;;7.10;99.90;;;;;;5478216;25;20663;-54
2024/04/21 08:07:32;;;;;;;3.77;1.90;;;7.30;99.90;;;;;;5474998;26;20554;-55
2024/04/21 08:10:00;;;;;;;4.73;1.80;;;7.40;99.90;;;;;;5464552;26;20286;-57
2024/04/21 08:12:29;;;;;;;1.50;1.40;;;7.50;99.90;;;;;;5476087;26;20239;-54
2024/04/21 08:14:54;;;;;;;2.97;1.40;;;7.60;99.90;;;;;;5429283;26;20379;-56
2024/04/21 08:17:26;;;;;;;2.10;1.53;;;7.70;99.90;;;;;;5459571;26;20261;-56
2024/04/21 08:19:54;;;;;;;1.30;1.20;;;7.70;99.90;;;;;;5473065;26;20237;-56
2024/04/21 08:22:22;;;;;;;1.60;1.33;;;7.80;99.90;;;;;;5474803;26;20239;-56
2024/04/21 08:24:48;;;;;;;2.43;1.60;;;7.80;99.90;;;;;;5488298;26;20231;-57
2024/04/21 08:27:16;;;;;;;1.43;1.20;;;7.90;99.90;;;;;;5466300;26;21146;-56
2024/04/21 08:29:42;;;;;;;1.37;1.27;;;7.90;99.90;;;;;;5429517;26;20285;-57
2024/04/21 08:32:11;;;;;;;1.43;1.33;;;7.90;99.90;;;;;;5486069;26;20243;-56
2024/04/21 08:34:40;;;;;;;2.83;1.53;;;8.00;99.90;;;;;;5464507;26;20281;-57
2024/04/21 08:37:09;;;;;;;2.40;1.50;;;8.10;99.90;;;;;;5470026;26;20231;-55
2024/04/21 08:39:35;;;;;;;3.03;1.43;;;8.10;99.90;;;;;;5476916;26;20276;-55
2024/04/21 08:42:05;;;;;;;2.80;1.30;;;8.20;99.90;;;;;;5453251;26;20243;-55
2024/04/21 08:44:34;;;;;;;1.37;1.27;;;8.30;99.90;;;;;;5431322;26;20293;-54
2024/04/21 08:47:04;;;;;;;1.30;1.20;;;8.30;99.90;;;;;;5480181;26;20285;-55
2024/04/21 08:49:30;;;;;;;1.63;1.27;;;8.30;99.90;;;;;;5466032;26;20241;-57
2024/04/21 08:52:03;;;;;;;1.53;1.43;;;8.20;99.90;;;;;;5474531;26;20729;-57
2024/04/21 08:54:28;;;;;;;2.07;1.40;;;8.20;99.90;;;;;;5478773;26;20288;-56
2024/04/21 08:57:02;;;;;;;1.40;1.30;;;8.20;99.90;;;;;;5457373;26;21143;-57
2024/04/21 08:59:32;;;;;;;2.43;1.33;;;8.30;99.90;;;;;;5467496;26;20744;-54
2024/04/21 09:02:01;;;;;;;2.43;1.90;;;8.40;99.90;;;;;;5441274;26;20293;-55
2024/04/21 09:04:28;;;;;;;1.30;1.20;;;8.40;99.90;;;;;;5449324;26;20231;-54
2024/04/21 09:06:57;;;;;;;1.47;1.20;;;8.40;99.90;;;;;;5482472;26;20727;-56
2024/04/21 09:09:26;;;;;;;1.40;1.30;;;8.40;99.90;;;;;;5460793;26;20624;-55
2024/04/21 09:11:55;;;;;;;2.00;1.30;;;8.50;99.90;;;;;;5466664;26;20381;-56
2024/04/21 09:14:22;;;;;;;1.20;1.10;;;8.60;99.90;;;;;;5483862;26;20264;-57
2024/04/21 09:16:50;;;;;;;1.20;1.10;;;8.60;99.90;;;;;;5447971;26;20234;-54
2024/04/21 09:19:16;;;;;;;1.40;1.30;;;8.50;99.90;;;;;;5484089;26;20261;-57
2024/04/21 09:21:45;;;;;;;2.13;1.30;;;8.50;99.90;;;;;;5466629;26;20251;-55
2024/04/21 09:24:10;;;;;;;2.50;1.33;;;8.50;99.90;;;;;;5458157;26;20233;-56
2024/04/21 09:26:41;;;;;;;1.43;1.27;;;8.50;99.90;;;;;;5477157;26;20266;-55
2024/04/21 09:29:07;;;;;;;1.20;1.10;;;8.50;99.90;;;;;;5474495;26;20288;-57
2024/04/21 09:31:36;;;;;;;1.33;1.23;;;8.60;99.90;;;;;;5453253;26;20246;-56
2024/04/21 09:34:02;;;;;;;2.60;1.23;;;8.70;99.90;;;;;;5484151;26;20272;-55
2024/04/21 09:36:31;;;;;;;4.47;1.10;;;8.80;99.90;;;;;;5459915;26;20308;-56
2024/04/21 09:38:59;;;;;;;1.23;1.13;;;8.90;99.90;;;;;;5474391;26;20600;-56
2024/04/21 09:41:29;;;;;;;1.07;1.03;;;9.00;99.90;;;;;;5457087;26;20227;-53
2024/04/21 09:43:58;;;;;;;2.00;1.43;;;9.10;99.80;;;;;;5480297;26;20591;-55
2024/04/21 09:46:27;;;;;;;2.13;1.50;;;9.10;99.90;;;;;;5435201;26;20242;-55
2024/04/21 09:48:55;;;;;;;1.83;1.20;;;9.20;99.90;;;;;;5482636;26;20262;-57
2024/04/21 09:51:24;;;;;;;1.60;1.13;;;9.40;99.90;;;;;;5452656;26;20312;-57
2024/04/21 09:53:53;;;;;;;2.10;1.30;;;9.50;99.80;;;;;;5481348;26;20277;-51
2024/04/21 09:56:23;;;;;;;1.90;1.30;;;9.50;99.90;;;;;;5475667;26;20360;-56
2024/04/21 09:58:53;;;;;;;1.43;1.33;;;9.60;99.90;;;;;;5483504;26;20281;-55
2024/04/21 10:01:31;;;;;;;1.97;1.57;;;9.70;99.90;;;;;;5453290;26;20235;-57
2024/04/21 10:04:02;;;;;;;1.50;1.40;;;9.60;99.90;;;;;;5482068;26;20229;-57
2024/04/21 10:06:31;;;;;;;1.63;1.20;;;9.40;99.50;;;;;;5470180;26;20238;-57
2024/04/21 10:09:00;;;;;;;1.20;1.10;;;9.30;99.40;;;;;;5465356;26;20239;-54
2024/04/21 10:11:29;;;;;;;1.17;1.07;;;9.30;99.60;;;;;;5465386;26;20301;-54
2024/04/21 10:13:58;;;;;;;1.23;1.13;;;9.30;99.70;;;;;;5476037;25;20274;-55
2024/04/21 10:16:31;;;;;;;0.93;0.80;;;9.10;99.20;;;;;;5441245;26;20335;-56
2024/04/21 10:19:03;;;;;;;1.97;1.40;;;9.10;99.00;;;;;;5475871;26;20262;-57
2024/04/21 10:21:32;;;;;;;2.17;1.23;;;9.20;99.20;;;;;;5476405;26;20238;-55
2024/04/21 10:23:59;;;;;;;1.30;1.20;;;9.40;98.70;;;;;;5457474;26;20246;-56
2024/04/21 10:26:29;;;;;;;1.03;1.03;;;9.50;97.30;;;;;;5462384;26;20286;-55
2024/04/21 10:29:06;;;;;;;2.40;1.00;;;9.50;96.30;;;;;;5467929;26;20276;-54
2024/04/21 10:31:37;;;;;;;1.20;1.10;;;9.40;96.10;;;;;;5435384;26;20481;-57
2024/04/21 10:34:08;;;;;;;1.17;1.07;;;9.60;97.00;;;;;;5477373;26;20715;-55
2024/04/21 10:36:43;;;;;;;1.37;1.03;;;9.80;96.90;;;;;;5488435;26;21066;-54
2024/04/21 10:39:10;;;;;;;1.27;1.17;;;9.80;94.70;;;;;;5468145;26;20746;-57
2024/04/21 10:41:45;;;;;;;1.30;1.20;;;9.80;95.90;;;;;;5477905;26;20998;-56
2024/04/21 10:44:11;;;;;;;2.50;1.00;;;10.10;96.00;;;;;;5484778;26;20229;-56
2024/04/21 10:46:42;;;;;;;2.00;1.00;;;10.40;95.90;;;;;;5470422;26;20272;-54
2024/04/21 10:49:08;;;;;;;1.17;1.07;;;10.60;96.10;;;;;;5445152;26;20253;-57
2024/04/21 10:51:37;;;;;;;1.37;1.10;;;10.60;95.70;;;;;;5486451;26;20323;-52
2024/04/21 10:54:04;;;;;;;1.37;1.27;;;10.40;96.10;;;;;;5469743;26;20277;-55
2024/04/21 10:56:34;;;;;;;1.43;1.03;;;10.30;96.50;;;;;;5477503;26;20316;-55
2024/04/21 10:59:00;;;;;;;1.33;1.10;;;10.10;95.40;;;;;;5477813;26;20235;-55
2024/04/21 11:01:29;;;;;;;1.30;1.20;;;10.00;96.60;;;;;;5459370;26;20285;-55
2024/04/21 11:03:58;;;;;;;2.73;1.20;;;9.90;96.20;;;;;;5444736;26;20281;-55
2024/04/21 11:06:27;;;;;;;1.23;1.17;;;9.80;95.80;;;;;;5481831;26;20728;-57
2024/04/21 11:08:53;;;;;;;2.73;1.10;;;9.70;96.40;;;;;;5492115;26;20794;-53
2024/04/21 11:11:22;;;;;;;1.33;1.00;;;9.70;96.90;;;;;;5462970;26;20251;-56
2024/04/21 11:13:50;;;;;;;1.33;1.23;;;9.70;96.70;;;;;;5477479;26;20349;-54
2024/04/21 11:16:16;;;;;;;2.27;1.20;;;9.80;96.10;;;;;;5475932;26;20265;-57
2024/04/21 11:18:45;;;;;;;1.00;1.00;;;9.70;95.30;;;;;;5448231;26;20397;-55
2024/04/21 11:21:13;;;;;;;2.60;1.20;;;9.60;95.40;;;;;;5490889;26;20237;-56
2024/04/21 11:23:43;;;;;;;1.00;1.00;;;9.70;94.70;;;;;;5489317;26;20243;-54
2024/04/21 11:26:08;;;;;;;1.40;1.27;;;9.80;95.40;;;;;;5468857;26;20771;-55
2024/04/21 11:28:37;;;;;;;2.13;1.17;;;10.00;96.00;;;;;;5457865;26;20235;-54
2024/04/21 11:31:04;;;;;;;1.67;0.93;;;10.10;95.00;;;;;;5465006;26;20281;-54
2024/04/21 11:33:33;;;;;;;3.30;1.20;;;10.00;95.00;;;;;;5438132;26;21664;-56
2024/04/21 11:36:01;;;;;;;0.80;0.80;;;10.00;94.90;;;;;;5476981;26;20234;-57
2024/04/21 11:38:32;;;;;;;1.60;1.13;;;9.80;93.00;;;;;;5480360;26;20267;-51
2024/04/21 11:40:58;;;;;;;1.83;1.00;;;9.60;93.90;;;;;;5478129;26;20225;-55
2024/04/21 11:43:28;;;;;;;0.73;0.73;;;9.70;94.50;;;;;;5441755;26;20290;-56
2024/04/21 11:45:59;;;;;;;1.20;1.10;;;9.80;93.80;;;;;;5487100;26;20229;-57
2024/04/21 11:48:32;;;;;;;0.97;0.90;;;9.80;93.30;;;;;;5482686;26;20226;-54
2024/04/21 11:50:58;;;;;;;1.47;1.27;;;9.70;92.90;;;;;;5454621;26;20264;-51
2024/04/21 11:53:27;;;;;;;1.00;0.90;;;9.70;93.40;;;;;;5482300;26;20611;-54
2024/04/21 11:55:56;;;;;;;2.60;1.00;;;9.80;93.00;;;;;;5480080;25;20237;-55
2024/04/21 11:58:26;;;;;;;1.37;1.27;;;9.90;93.50;;;;;;5439427;26;20284;-55
2024/04/21 12:00:52;;;;;;;1.30;1.13;;;9.90;93.50;;;;;;5480900;26;20226;-56
2024/04/21 12:03:21;;;;;;;0.93;0.93;;;10.10;94.10;;;;;;5471954;26;20241;-57
2024/04/21 12:05:49;;;;;;;0.87;0.80;;;10.30;94.30;;;;;;5448787;26;20262;-56
2024/04/21 12:08:18;;;;;;;1.30;0.83;;;10.50;94.70;;;;;;5483011;26;20250;-56
2024/04/21 12:10:44;;;;;;;1.20;1.10;;;10.70;94.20;;;;;;5475983;26;20390;-56
2024/04/21 12:13:15;;;;;;;1.00;0.90;;;10.70;93.80;;;;;;5462090;25;20281;-55
2024/04/21 12:15:41;;;;;;;0.87;0.83;;;10.60;93.50;;;;;;5469768;26;20230;-56
2024/04/21 12:18:10;;;;;;;1.10;1.10;;;10.70;93.10;;;;;;5473019;26;20252;-56
2024/04/21 12:20:36;;;;;;;0.80;0.80;;;10.70;93.20;;;;;;5467317;26;20234;-55
2024/04/21 12:23:05;;;;;;;1.00;1.00;;;10.70;91.80;;;;;;5441324;26;20535;-55
2024/04/21 12:25:31;;;;;;;1.17;0.90;;;10.70;91.90;;;;;;5477299;26;20270;-55
2024/04/21 12:28:00;;;;;;;1.90;1.07;;;10.80;92.00;;;;;;5458857;26;20847;-56
2024/04/21 12:30:28;;;;;;;0.80;0.80;;;10.70;91.70;;;;;;5488804;25;20268;-57
2024/04/21 12:32:57;;;;;;;0.73;0.73;;;10.70;92.40;;;;;;5477505;26;20724;-54
2024/04/21 12:35:22;;;;;;;0.90;0.90;;;10.90;92.60;;;;;;5470704;26;20285;-56
2024/04/21 12:37:51;;;;;;;1.03;1.00;;;10.90;91.90;;;;;;5422551;26;20750;-56
2024/04/21 12:40:17;;;;;;;1.20;1.10;;;11.00;92.60;;;;;;5486394;26;20230;-53
2024/04/21 12:42:45;;;;;;;1.20;1.10;;;11.10;92.10;;;;;;5479772;26;20238;-58
2024/04/21 12:45:11;;;;;;;0.90;0.90;;;11.20;92.20;;;;;;5463210;26;21077;-56
2024/04/21 12:47:42;;;;;;;1.93;1.17;;;11.10;91.10;;;;;;5468031;26;20276;-57
2024/04/21 12:50:08;;;;;;;2.20;1.20;;;10.90;92.10;;;;;;5457620;26;20237;-56
2024/04/21 12:52:37;;;;;;;1.47;1.10;;;10.90;91.80;;;;;;5423157;26;20293;-56
2024/04/21 12:55:03;;;;;;;1.20;1.10;;;10.70;90.80;;;;;;5484559;26;20424;-52
2024/04/21 12:57:32;;;;;;;1.30;1.20;;;10.50;91.30;;;;;;5487967;26;20276;-52
2024/04/21 12:59:58;;;;;;;1.63;1.10;;;10.60;92.50;;;;;;5456246;26;20254;-52